createdAt,value
2018-09-19T00:02:14.949Z,78.85
2018-09-19T00:04:43.504Z,79.34
2018-09-19T00:07:12.132Z,78.88
2018-09-19T00:09:40.650Z,78.38
2018-09-19T00:12:09.203Z,79.57
2018-09-19T00:14:37.749Z,79.00
2018-09-19T00:17:06.347Z,79.09
2018-09-19T00:19:34.931Z,79.11
2018-09-19T00:22:03.466Z,79.70
2018-09-19T00:24:32.063Z,79.45
2018-09-19T00:27:00.681Z,79.35
2018-09-19T00:29:29.197Z,79.41
2018-09-19T00:31:57.746Z,80.08
2018-09-19T00:34:26.291Z,79.98
2018-09-19T00:36:54.928Z,79.81
2018-09-19T00:39:23.464Z,79.43
2018-09-19T00:41:52.104Z,79.80
2018-09-19T00:44:20.719Z,79.99
2018-09-19T00:46:49.238Z,80.33
2018-09-19T00:49:17.791Z,80.04
2018-09-19T00:51:46.399Z,80.42
2018-09-19T00:54:14.972Z,80.34
2018-09-19T00:56:43.535Z,81.07
2018-09-19T00:59:12.110Z,80.33
2018-09-19T01:01:40.640Z,80.70
2018-09-19T01:04:09.428Z,80.62
2018-09-19T01:06:37.911Z,80.85
2018-09-19T01:09:08.000Z,80.84
2018-09-19T01:11:38.636Z,80.72
2018-09-19T01:14:07.151Z,80.97
2018-09-19T01:16:35.640Z,80.88
2018-09-19T01:19:04.171Z,81.39
2018-09-19T01:21:32.759Z,80.93
2018-09-19T01:24:01.288Z,81.12
2018-09-19T01:26:29.767Z,81.19
2018-09-19T01:28:58.292Z,80.43
2018-09-19T01:31:26.800Z,80.79
2018-09-19T01:33:55.331Z,80.71
2018-09-19T01:36:23.916Z,81.23
2018-09-19T01:38:52.460Z,80.71
2018-09-19T01:41:21.045Z,81.17
2018-09-19T01:43:49.552Z,81.19
2018-09-19T01:46:18.080Z,81.85
2018-09-19T01:48:46.575Z,81.44
2018-09-19T01:51:15.092Z,81.61
2018-09-19T01:53:43.583Z,81.70
2018-09-19T01:56:12.045Z,81.29
2018-09-19T01:58:40.576Z,81.21
2018-09-19T02:01:09.017Z,81.27
2018-09-19T02:03:37.496Z,81.16
2018-09-19T02:06:06.385Z,81.04
2018-09-19T02:08:35.017Z,81.35
2018-09-19T02:11:03.513Z,81.08
2018-09-19T02:13:32.023Z,80.83
2018-09-19T02:16:00.529Z,81.24
2018-09-19T02:18:28.997Z,81.29
2018-09-19T02:20:57.501Z,81.43
2018-09-19T02:23:25.984Z,81.46
2018-09-19T02:25:54.514Z,81.43
2018-09-19T02:28:23.159Z,81.70
2018-09-19T02:30:51.648Z,81.59
2018-09-19T02:33:20.104Z,81.09
2018-09-19T02:35:48.576Z,81.44
2018-09-19T02:38:17.077Z,81.45
2018-09-19T02:40:45.843Z,81.05
2018-09-19T02:43:14.444Z,81.28
2018-09-19T02:45:42.911Z,81.56
2018-09-19T02:48:11.438Z,81.55
2018-09-19T02:50:40.061Z,82.05
2018-09-19T02:53:08.506Z,81.90
2018-09-19T02:55:36.977Z,81.49
2018-09-19T02:58:05.505Z,81.10
2018-09-19T03:00:33.969Z,81.35
2018-09-19T03:03:02.543Z,81.62
2018-09-19T03:05:30.989Z,81.17
2018-09-19T03:07:59.487Z,81.34
2018-09-19T03:10:27.968Z,81.58
2018-09-19T03:12:56.539Z,81.66
2018-09-19T03:15:25.052Z,81.14
2018-09-19T03:17:53.503Z,81.51
2018-09-19T03:20:22.009Z,81.12
2018-09-19T03:22:51.575Z,81.51
2018-09-19T03:25:20.144Z,81.19
2018-09-19T03:27:48.656Z,81.78
2018-09-19T03:30:17.160Z,81.92
2018-09-19T03:32:45.662Z,81.49
2018-09-19T03:35:14.163Z,81.70
2018-09-19T03:37:42.647Z,81.13
2018-09-19T03:40:11.131Z,81.66
2018-09-19T03:42:39.713Z,81.64
2018-09-19T03:45:08.208Z,81.61
2018-09-19T03:47:36.737Z,81.85
2018-09-19T03:50:05.283Z,82.05
2018-09-19T03:52:33.768Z,81.91
2018-09-19T03:55:02.284Z,82.25
2018-09-19T03:57:30.743Z,81.74
2018-09-19T03:59:59.634Z,82.04
2018-09-19T04:02:28.095Z,81.95
2018-09-19T04:04:56.565Z,82.15
2018-09-19T04:07:25.068Z,82.64
2018-09-19T04:09:53.542Z,81.98
2018-09-19T04:12:23.224Z,82.78
2018-09-19T04:14:51.686Z,82.69
2018-09-19T04:17:21.677Z,83.29
2018-09-19T04:19:50.285Z,82.97
2018-09-19T04:22:18.907Z,82.72
2018-09-19T04:24:47.656Z,82.91
2018-09-19T04:27:16.139Z,82.38
2018-09-19T04:29:44.607Z,82.46
2018-09-19T04:32:13.351Z,81.85
2018-09-19T04:34:41.811Z,82.36
2018-09-19T04:37:10.303Z,82.42
2018-09-19T04:39:38.804Z,81.99
2018-09-19T04:42:07.501Z,82.21
2018-09-19T04:44:36.001Z,82.43
2018-09-19T04:47:04.557Z,82.46
2018-09-19T04:49:33.006Z,82.61
2018-09-19T04:52:01.469Z,82.59
2018-09-19T04:54:30.001Z,82.43
2018-09-19T04:56:58.482Z,82.59
2018-09-19T04:59:26.960Z,82.86
2018-09-19T05:01:55.437Z,82.36
2018-09-19T05:04:23.882Z,82.96
2018-09-19T05:06:52.493Z,83.20
2018-09-19T05:09:21.514Z,83.27
2018-09-19T05:11:50.104Z,83.22
2018-09-19T05:14:18.559Z,82.81
2018-09-19T05:16:47.043Z,82.54
2018-09-19T05:19:15.617Z,82.81
2018-09-19T05:21:44.104Z,82.28
2018-09-19T05:24:12.588Z,81.79
2018-09-19T05:26:41.137Z,82.12
2018-09-19T05:29:09.619Z,82.45
2018-09-19T05:31:38.148Z,82.23
2018-09-19T05:34:06.593Z,82.20
2018-09-19T05:36:35.056Z,82.24
2018-09-19T05:39:04.360Z,81.93
2018-09-19T05:41:32.828Z,81.89
2018-09-19T05:44:01.320Z,82.23
2018-09-19T05:46:29.820Z,82.58
2018-09-19T05:48:58.283Z,82.28
2018-09-19T05:51:26.762Z,82.37
2018-09-19T05:53:55.227Z,82.32
2018-09-19T05:56:24.023Z,81.86
2018-09-19T05:58:52.684Z,82.93
2018-09-19T06:01:21.166Z,82.57
2018-09-19T06:03:49.767Z,82.60
2018-09-19T06:06:18.494Z,83.31
2018-09-19T06:08:47.089Z,83.16
2018-09-19T06:11:15.594Z,83.56
2018-09-19T06:13:44.141Z,83.52
2018-09-19T06:16:12.629Z,83.83
2018-09-19T06:18:41.097Z,83.37
2018-09-19T06:21:09.555Z,83.09
2018-09-19T06:23:38.033Z,83.09
2018-09-19T06:26:06.539Z,82.40
2018-09-19T06:28:35.080Z,82.38
2018-09-19T06:31:03.581Z,81.47
2018-09-19T06:33:32.129Z,80.78
2018-09-19T06:36:00.614Z,80.55
2018-09-19T06:38:29.135Z,80.53
2018-09-19T06:40:57.722Z,80.38
2018-09-19T06:43:26.096Z,79.71
2018-09-19T06:45:54.626Z,79.72
2018-09-19T06:48:23.159Z,79.25
2018-09-19T06:50:51.666Z,79.08
2018-09-19T06:53:21.287Z,79.39
2018-09-19T06:55:49.796Z,78.94
2018-09-19T06:58:18.276Z,78.98
2018-09-19T07:00:46.769Z,78.27
2018-09-19T07:03:15.326Z,78.80
2018-09-19T07:05:43.945Z,79.12
2018-09-19T07:08:12.412Z,78.05
2018-09-19T07:10:40.944Z,78.50
2018-09-19T07:13:09.529Z,77.84
2018-09-19T07:15:38.408Z,77.68
2018-09-19T07:18:07.020Z,77.59
2018-09-19T07:20:35.536Z,77.08
2018-09-19T07:23:04.068Z,76.66
2018-09-19T07:25:32.717Z,75.88
2018-09-19T07:28:01.236Z,75.98
2018-09-19T07:30:29.740Z,75.34
2018-09-19T07:32:58.285Z,74.80
2018-09-19T07:35:26.822Z,74.67
2018-09-19T07:37:55.346Z,74.55
2018-09-19T07:40:23.930Z,73.96
2018-09-19T07:42:52.383Z,73.31
2018-09-19T07:45:21.064Z,73.45
2018-09-19T07:47:49.658Z,73.20
2018-09-19T07:50:18.266Z,73.06
2018-09-19T07:52:47.124Z,72.32
2018-09-19T07:55:15.723Z,72.24
2018-09-19T07:57:44.183Z,72.07
2018-09-19T08:00:12.690Z,72.01
2018-09-19T08:02:41.207Z,71.72
2018-09-19T08:05:09.710Z,71.07
2018-09-19T08:07:38.224Z,71.21
2018-09-19T08:10:07.925Z,70.50
2018-09-19T08:12:36.814Z,69.87
2018-09-19T08:15:05.396Z,70.18
2018-09-19T08:17:34.157Z,69.71
2018-09-19T08:20:02.728Z,68.97
2018-09-19T08:22:31.310Z,68.43
2018-09-19T08:24:59.878Z,68.16
2018-09-19T08:27:28.374Z,67.82
2018-09-19T08:29:56.901Z,67.19
2018-09-19T08:32:25.419Z,67.21
2018-09-19T08:34:53.971Z,67.23
2018-09-19T08:37:22.496Z,66.12
2018-09-19T08:39:51.120Z,65.71
2018-09-19T08:42:19.634Z,65.60
2018-09-19T08:44:48.165Z,65.62
2018-09-19T08:47:16.692Z,65.81
2018-09-19T08:49:45.181Z,65.27
2018-09-19T08:52:13.729Z,65.04
2018-09-19T08:54:42.228Z,64.63
2018-09-19T08:57:10.763Z,64.62
2018-09-19T08:59:39.276Z,63.96
2018-09-19T09:02:07.889Z,63.24
2018-09-19T09:04:36.383Z,62.76
2018-09-19T09:07:05.036Z,63.16
2018-09-19T09:09:33.513Z,63.62
2018-09-19T09:12:02.123Z,63.58
2018-09-19T09:14:30.639Z,62.85
2018-09-19T09:16:59.144Z,61.41
2018-09-19T09:19:27.691Z,61.10
2018-09-19T09:21:56.223Z,60.59
2018-09-19T09:24:24.782Z,60.55
2018-09-19T09:26:53.726Z,60.99
2018-09-19T09:29:22.205Z,59.66
2018-09-19T09:31:50.715Z,60.65
2018-09-19T09:34:19.323Z,59.44
2018-09-19T09:36:47.858Z,59.30
2018-09-19T09:39:16.433Z,59.07
2018-09-19T09:41:44.978Z,59.10
2018-09-19T09:44:13.517Z,57.76
2018-09-19T09:46:42.101Z,58.50
2018-09-19T09:49:10.590Z,57.70
2018-09-19T09:51:39.120Z,58.49
2018-09-19T09:54:08.002Z,57.77
2018-09-19T09:56:36.699Z,58.05
2018-09-19T09:59:05.221Z,56.28
2018-09-19T10:01:33.779Z,55.98
2018-09-19T10:04:02.332Z,56.67
2018-09-19T10:06:30.877Z,56.81
2018-09-19T10:08:59.399Z,55.50
2018-09-19T10:11:27.992Z,55.63
2018-09-19T10:13:56.659Z,55.46
2018-09-19T10:16:25.165Z,55.69
2018-09-19T10:18:53.730Z,53.54
2018-09-19T10:21:22.359Z,53.63
2018-09-19T10:23:50.892Z,53.72
2018-09-19T10:26:19.405Z,52.89
2018-09-19T10:28:48.313Z,53.41
2018-09-19T10:31:16.857Z,52.34
2018-09-19T10:33:45.395Z,50.66
2018-09-19T10:36:13.900Z,50.45
2018-09-19T10:38:42.460Z,51.04
2018-09-19T10:41:10.955Z,50.87
2018-09-19T10:43:39.495Z,51.22
2018-09-19T10:46:08.102Z,50.89
2018-09-19T10:48:36.596Z,50.47
2018-09-19T10:51:05.084Z,50.44
2018-09-19T10:53:33.594Z,49.98
2018-09-19T10:56:02.297Z,50.21
2018-09-19T10:58:30.889Z,49.30
2018-09-19T11:00:59.499Z,49.25
2018-09-19T11:03:28.029Z,48.81
2018-09-19T11:05:56.543Z,48.64
2018-09-19T11:08:25.198Z,49.17
2018-09-19T11:10:53.692Z,48.57
2018-09-19T11:13:22.828Z,47.40
2018-09-19T11:15:51.339Z,47.94
2018-09-19T11:18:19.848Z,47.54
2018-09-19T11:20:48.351Z,48.10
2018-09-19T11:23:16.911Z,47.63
2018-09-19T11:25:45.384Z,47.54
2018-09-19T11:28:13.872Z,47.92
2018-09-19T11:30:42.408Z,46.84
2018-09-19T11:33:10.883Z,46.46
2018-09-19T11:35:39.388Z,46.51
2018-09-19T11:38:07.896Z,46.63
2018-09-19T11:40:36.469Z,46.84
2018-09-19T11:43:04.974Z,47.05
2018-09-19T11:45:33.483Z,46.71
2018-09-19T11:48:02.072Z,46.05
2018-09-19T11:50:30.597Z,45.55
2018-09-19T11:52:59.105Z,45.37
2018-09-19T11:55:27.716Z,46.02
2018-09-19T11:57:56.251Z,45.72
2018-09-19T12:00:24.791Z,45.92
2018-09-19T12:02:53.354Z,45.38
2018-09-19T12:05:21.914Z,46.29
2018-09-19T12:07:50.453Z,44.83
2018-09-19T12:10:18.956Z,45.44
2018-09-19T12:12:47.503Z,45.92
2018-09-19T12:15:16.010Z,45.55
2018-09-19T12:17:44.495Z,45.01
2018-09-19T12:20:13.014Z,44.84
2018-09-19T12:22:41.507Z,46.36
2018-09-19T12:25:10.058Z,46.33
2018-09-19T12:27:38.556Z,46.65
2018-09-19T12:30:07.127Z,45.21
2018-09-19T12:32:35.615Z,44.63
2018-09-19T12:35:04.206Z,44.91
2018-09-19T12:37:32.715Z,43.79
2018-09-19T12:40:01.277Z,44.30
2018-09-19T12:42:29.837Z,44.48
2018-09-19T12:44:58.357Z,43.44
2018-09-19T12:47:26.863Z,43.65
2018-09-19T12:49:55.368Z,43.26
2018-09-19T12:52:25.315Z,43.94
2018-09-19T12:54:53.848Z,43.53
2018-09-19T12:57:22.804Z,44.18
2018-09-19T12:59:51.323Z,44.15
2018-09-19T13:02:19.821Z,43.04
2018-09-19T13:04:48.700Z,43.53
2018-09-19T13:07:17.180Z,43.10
2018-09-19T13:09:45.660Z,44.42
2018-09-19T13:12:14.628Z,43.85
2018-09-19T13:14:43.384Z,44.91
2018-09-19T13:17:12.194Z,44.74
2018-09-19T13:19:41.261Z,44.98
2018-09-19T13:22:09.746Z,44.61
2018-09-19T13:24:38.229Z,45.26
2018-09-19T13:27:06.792Z,44.18
2018-09-19T13:29:36.444Z,43.68
2018-09-19T13:32:04.949Z,44.10
2018-09-19T13:34:33.413Z,43.44
2018-09-19T13:37:01.988Z,44.57
2018-09-19T13:39:30.496Z,44.69
2018-09-19T13:41:59.571Z,43.52
2018-09-19T13:44:28.079Z,44.78
2018-09-19T13:46:57.014Z,44.13
2018-09-19T13:49:30.736Z,44.78
2018-09-19T13:51:59.365Z,45.11
2018-09-19T13:54:27.827Z,44.74
2018-09-19T13:56:56.495Z,45.36
2018-09-19T13:59:26.357Z,45.72
2018-09-19T14:01:54.921Z,44.94
2018-09-19T14:04:23.476Z,45.46
2018-09-19T14:06:51.955Z,45.16
2018-09-19T14:09:20.514Z,45.68
2018-09-19T14:11:49.594Z,46.16
2018-09-19T14:14:19.306Z,45.02
2018-09-19T14:16:48.677Z,45.98
2018-09-19T14:19:17.259Z,45.56
2018-09-19T14:21:45.776Z,45.82
2018-09-19T14:24:14.240Z,46.73
2018-09-19T14:26:42.737Z,45.80
2018-09-19T14:29:11.394Z,46.33
2018-09-19T14:31:39.894Z,45.89
2018-09-19T14:34:09.419Z,45.69
2018-09-19T14:36:38.020Z,45.63
2018-09-19T14:39:07.516Z,45.03
2018-09-19T14:41:36.017Z,45.57
2018-09-19T14:44:04.616Z,45.62
2018-09-19T14:46:33.113Z,45.59
2018-09-19T14:49:02.199Z,46.06
2018-09-19T14:51:30.684Z,46.32
2018-09-19T14:53:59.503Z,45.98
2018-09-19T14:56:28.098Z,45.90
2018-09-19T14:58:56.729Z,46.33
2018-09-19T15:13:21.524Z,46.38
2018-09-19T15:15:50.116Z,46.68
2018-09-19T15:18:19.765Z,45.88
2018-09-19T15:20:48.353Z,46.29
2018-09-19T15:23:16.985Z,46.19
2018-09-19T15:25:45.600Z,45.99
2018-09-19T15:28:14.423Z,45.75
2018-09-19T15:30:43.289Z,46.87
2018-09-19T15:33:11.818Z,47.05
2018-09-19T15:35:40.354Z,47.23
2018-09-19T15:38:08.899Z,46.86
2018-09-19T15:40:37.378Z,46.08
2018-09-19T15:43:06.465Z,46.66
2018-09-19T15:45:38.322Z,47.19
2018-09-19T15:48:07.093Z,46.88
2018-09-19T15:50:35.682Z,46.72
2018-09-19T15:53:04.189Z,46.16
2018-09-19T15:55:33.732Z,46.01
2018-09-19T15:58:02.203Z,47.13
2018-09-19T16:00:30.721Z,47.07
2018-09-19T16:02:59.417Z,46.80
2018-09-19T16:05:28.040Z,46.69
2018-09-19T16:07:56.539Z,47.29
2018-09-19T16:10:26.138Z,47.21
2018-09-19T16:12:54.640Z,47.65
2018-09-19T16:15:23.142Z,46.96
2018-09-19T16:17:51.749Z,47.16
2018-09-19T16:20:21.547Z,48.03
2018-09-19T16:22:50.023Z,47.34
2018-09-19T16:25:18.635Z,48.25
2018-09-19T16:27:47.134Z,47.69
2018-09-19T16:30:16.902Z,47.91
2018-09-19T16:32:45.489Z,48.25
2018-09-19T16:35:14.048Z,48.07
2018-09-19T16:37:42.994Z,48.31
2018-09-19T16:40:12.729Z,48.44
2018-09-19T16:42:42.460Z,49.36
2018-09-19T16:45:12.977Z,49.89
2018-09-19T16:47:41.711Z,49.11
2018-09-19T16:50:10.213Z,49.31
2018-09-19T16:52:38.817Z,50.38
2018-09-19T16:55:07.429Z,49.84
2018-09-19T16:57:35.938Z,49.77
2018-09-19T17:00:04.873Z,50.86
2018-09-19T17:02:33.393Z,50.71
2018-09-19T17:05:02.891Z,50.09
2018-09-19T17:07:32.272Z,50.79
2018-09-19T17:10:01.585Z,50.89
2018-09-19T17:12:31.333Z,50.27
2018-09-19T17:15:00.052Z,50.98
2018-09-19T17:17:29.636Z,51.62
2018-09-19T17:19:58.129Z,51.08
2018-09-19T17:22:27.730Z,52.02
2018-09-19T17:24:56.332Z,52.17
2018-09-19T17:27:24.794Z,52.37
2018-09-19T17:29:54.302Z,52.56
2018-09-19T17:32:22.961Z,52.74
2018-09-19T17:34:51.523Z,53.33
2018-09-19T17:37:20.092Z,53.36
2018-09-19T17:39:49.737Z,53.82
2018-09-19T17:42:18.226Z,54.10
2018-09-19T17:44:46.919Z,53.27
2018-09-19T17:47:15.631Z,53.41
2018-09-19T17:49:45.239Z,53.48
2018-09-19T17:52:15.751Z,53.59
2018-09-19T17:54:44.330Z,53.78
2018-09-19T17:57:13.888Z,54.90
2018-09-19T17:59:43.472Z,55.20
2018-09-19T18:02:12.257Z,54.85
2018-09-19T18:04:40.817Z,54.54
2018-09-19T18:07:09.549Z,55.12
2018-09-19T18:09:39.112Z,55.53
2018-09-19T18:12:08.052Z,55.15
2018-09-19T18:14:36.553Z,55.22
2018-09-19T18:17:05.249Z,56.32
2018-09-19T18:19:33.880Z,55.86
2018-09-19T18:22:02.388Z,56.67
2018-09-19T18:24:30.869Z,56.44
2018-09-19T18:26:59.750Z,56.57
2018-09-19T18:29:29.328Z,56.97
2018-09-19T18:31:57.792Z,57.37
2018-09-19T18:34:27.301Z,57.29
2018-09-19T18:36:55.768Z,57.06
2018-09-19T18:39:24.245Z,56.77
2018-09-19T18:41:53.757Z,56.51
2018-09-19T18:44:23.316Z,57.44
2018-09-19T18:46:51.816Z,57.31
2018-09-19T18:49:20.356Z,57.32
2018-09-19T18:51:48.892Z,57.70
2018-09-19T18:54:22.281Z,57.83
2018-09-19T18:56:51.610Z,58.26
2018-09-19T18:59:20.315Z,58.77
2018-09-19T19:01:50.242Z,58.81
2018-09-19T19:04:18.655Z,59.17
2018-09-19T19:06:47.128Z,58.87
2018-09-19T19:09:15.620Z,58.75
2018-09-19T19:11:44.101Z,59.90
2018-09-19T19:14:12.636Z,60.06
2018-09-19T19:16:41.089Z,60.48
2018-09-19T19:19:09.628Z,60.05
2018-09-19T19:21:38.128Z,60.20
2018-09-19T19:24:06.661Z,60.44
2018-09-19T19:26:35.204Z,60.97
2018-09-19T19:29:03.705Z,61.86
2018-09-19T19:31:32.172Z,62.29
2018-09-19T19:34:00.683Z,62.31
2018-09-19T19:36:29.214Z,62.49
2018-09-19T19:38:57.668Z,62.00
2018-09-19T19:41:26.140Z,62.47
2018-09-19T19:43:54.653Z,62.99
2018-09-19T19:46:23.141Z,62.83
2018-09-19T19:48:51.633Z,63.82
2018-09-19T19:51:20.173Z,63.44
2018-09-19T19:53:48.644Z,64.60
2018-09-19T19:56:17.332Z,64.68
2018-09-19T19:58:45.941Z,65.21
2018-09-19T20:01:14.677Z,65.32
2018-09-19T20:03:43.188Z,64.87
2018-09-19T20:06:11.671Z,65.52
2018-09-19T20:08:40.141Z,66.20
2018-09-19T20:11:08.600Z,66.81
2018-09-19T20:13:37.093Z,66.68
2018-09-19T20:16:05.660Z,66.24
2018-09-19T20:18:34.232Z,66.27
2018-09-19T20:21:03.152Z,66.52
2018-09-19T20:23:31.600Z,66.61
2018-09-19T20:26:00.074Z,66.71
2018-09-19T20:28:28.597Z,66.96
2018-09-19T20:30:57.098Z,67.71
2018-09-19T20:33:25.598Z,67.51
2018-09-19T20:35:54.061Z,67.93
2018-09-19T20:38:22.532Z,67.92
2018-09-19T20:40:51.002Z,67.17
2018-09-19T20:43:19.674Z,67.83
2018-09-19T20:45:48.140Z,67.13
2018-09-19T20:48:16.671Z,68.05
2018-09-19T20:50:45.436Z,68.39
2018-09-19T20:53:13.996Z,68.74
2018-09-19T20:55:42.492Z,68.25
2018-09-19T20:58:11.209Z,68.79
2018-09-19T21:00:39.723Z,69.11
2018-09-19T21:03:08.212Z,68.62
2018-09-19T21:05:36.812Z,69.00
2018-09-19T21:08:05.284Z,69.15
2018-09-19T21:10:33.781Z,68.68
2018-09-19T21:13:02.291Z,68.97
2018-09-19T21:15:31.047Z,69.42
2018-09-19T21:17:59.517Z,69.16
2018-09-19T21:20:29.013Z,69.73
2018-09-19T21:22:57.510Z,69.90
2018-09-19T21:25:26.127Z,70.47
2018-09-19T21:27:54.665Z,69.80
2018-09-19T21:30:24.172Z,70.21
2018-09-19T21:32:52.660Z,68.89
2018-09-19T21:35:21.192Z,69.31
2018-09-19T21:37:49.712Z,69.53
2018-09-19T21:40:18.200Z,69.14
2018-09-19T21:42:46.840Z,68.93
2018-09-19T21:45:15.357Z,67.48
2018-09-19T21:47:43.809Z,67.36
2018-09-19T21:50:12.339Z,66.43
2018-09-19T21:52:40.808Z,66.05
2018-09-19T21:55:09.277Z,66.55
2018-09-19T21:57:37.781Z,65.83
2018-09-19T22:00:07.161Z,65.90
2018-09-19T22:02:35.628Z,66.06
2018-09-19T22:05:04.284Z,65.58
2018-09-19T22:07:32.808Z,65.04
2018-09-19T22:10:01.261Z,64.37
2018-09-19T22:12:29.741Z,65.15
2018-09-19T22:14:58.213Z,64.95
2018-09-19T22:17:26.680Z,64.78
2018-09-19T22:19:55.384Z,64.97
2018-09-19T22:22:25.893Z,64.39
2018-09-19T22:24:54.365Z,64.74
2018-09-19T22:27:22.902Z,64.60
2018-09-19T22:29:51.337Z,63.75
2018-09-19T22:32:19.844Z,63.68
2018-09-19T22:34:48.334Z,64.18
2018-09-19T22:37:16.829Z,63.38
2018-09-19T22:39:46.316Z,63.63
2018-09-19T22:42:14.783Z,63.42
2018-09-19T22:44:43.308Z,63.46
2018-09-19T22:47:11.799Z,63.46
2018-09-19T22:49:40.256Z,63.85
2018-09-19T22:52:08.741Z,63.29
2018-09-19T22:54:37.205Z,63.59
2018-09-19T22:57:05.778Z,62.98
2018-09-19T22:59:34.232Z,63.00
2018-09-19T23:02:03.027Z,63.76
2018-09-19T23:04:31.491Z,63.66
2018-09-19T23:06:59.981Z,63.25
2018-09-19T23:09:30.559Z,63.95
2018-09-19T23:11:59.020Z,63.56
2018-09-19T23:14:27.488Z,64.44
2018-09-19T23:16:57.129Z,64.53
2018-09-19T23:19:25.969Z,65.26
2018-09-19T23:21:54.491Z,65.73
2018-09-19T23:24:22.972Z,66.89
2018-09-19T23:26:51.428Z,67.08
2018-09-19T23:29:20.956Z,66.48
2018-09-19T23:31:49.474Z,67.04
2018-09-19T23:34:18.044Z,67.08
2018-09-19T23:36:46.520Z,67.83
2018-09-19T23:39:14.991Z,68.58
2018-09-19T23:41:44.511Z,68.97
2018-09-19T23:44:12.967Z,69.08
2018-09-19T23:46:41.723Z,69.73
2018-09-19T23:49:10.189Z,69.06
2018-09-19T23:51:38.712Z,69.94
2018-09-19T23:54:07.472Z,70.24
2018-09-19T23:56:35.949Z,69.91
2018-09-19T23:59:04.431Z,70.69
